Lynn Lake, Lynn Lake Airport (CYYL)

NameLynn Lake Airport
CityLynn Lake
CountryCanada
ICAOCYYL
IATAYYL
Altitude357 m
CoordinatesGoogle Map
Live Air TrafficLiveATC.net
METARCYYL 160400Z AUTO 33004KT 9SM CLR 13/10 A2982 RMK SLP108 DENSITY ALT 1300FT
2019-07-16 04:00:00 Wind: Northwest (330°) 2.06 m/s - Visibility: 14484.06 m - Temperature: 13 °C - Dew point: 10 °C - Humidity: 82.2% - Pressure: 1009.82 hPa
Statistics

The table below shows the detailed information of all flights to/from Lynn Lake, Lynn Lake Airport (CYYL).